Flight Track Log - Related Links

Times and Time Zones

All times are in EDT time to prevent confusion due to time zone crossing. See the SWA2236 flight status page for this flight to view local times or setup timezone preferences in your user account.

Time Position Orientation Groundspeed Altitude Reporting Facility
EDT Latitude Longitude Course Direction KTS MPH feet Rate Location/Type
Tue 12:24:24 PM 37.7167 -122.2500 310° West 155 178 1,000  Level Northern Cal TRACON
Tue 12:25:24 PM 37.7500 -122.3000 310° West 212 244 2,900 2,400 Climbing Northern Cal TRACON
Tue 12:26:24 PM 37.7833 -122.3667 302° West 239 275 5,800 2,950 Climbing Northern Cal TRACON
Tue 12:27:24 PM 37.7333 -122.4333 227° Southwest 249 287 8,800 2,100 Climbing Northern Cal TRACON
Tue 12:28:24 PM 37.6667 -122.4500 191° South 301 346 10,000 1,100 Climbing Northern Cal TRACON
Tue 12:29:24 PM 37.5667 -122.4500 180° South 317 365 11,000 1,900 Climbing Northern Cal TRACON
Tue 12:30:24 PM 37.5000 -122.3833 142° Southeast 355 409 13,800 2,676 Climbing Northern Cal TRACON
Tue 12:31:52 PM 37.4531 -122.2164 109° East 365 420 17,600 2,120 Climbing Oakland Center
Tue 12:32:54 PM 37.3931 -122.1042 124° Southeast 389 448 19,100 1,951 Climbing Oakland Center
Tue 12:33:55 PM 37.3186 -122.0017 132° Southeast 399 459 21,600 2,213 Climbing Oakland Center
Tue 12:34:56 PM 37.2739 -121.8669 113° Southeast 429 494 23,600 2,000 Climbing Oakland Center
Tue 12:35:58 PM 37.2456 -121.7036 102° East 448 516 25,700 2,098 Climbing Oakland Center
Tue 12:36:59 PM 37.2169 -121.5472 103° East 458 527 27,900 1,721 Climbing Oakland Center
Tue 12:38:00 PM 37.1881 -121.3872 103° East 469 540 29,200 1,659 Climbing Oakland Center
Tue 12:39:02 PM 37.1581 -121.2239 103° East 479 551 31,300 1,854 Climbing Oakland Center
Tue 12:40:03 PM 37.1281 -121.0631 103° East 477 549 33,000 836 Climbing Oakland Center
Tue 12:41:04 PM 37.0914 -120.8728 104° East 470 541 33,000  Level Oakland Center
Tue 12:42:06 PM 37.0606 -120.7128 104° East 472 543 33,000  Level Oakland Center
Tue 12:43:07 PM 37.0308 -120.5514 103° East 476 548 33,000  Level Oakland Center
Tue 12:44:08 PM 36.9992 -120.3942 104° East 470 541 33,000  Level Oakland Center
Tue 12:45:10 PM 36.9678 -120.2372 104° East 467 537 33,000  Level Oakland Center
Tue 12:46:11 PM 36.9394 -120.0900 103° East 470 541 33,000  Level Oakland Center
Tue 12:47:12 PM 36.9006 -119.8972 104° East 474 545 33,000  Level Oakland Center
Tue 12:48:13 PM 36.8839 -119.7336 97° East 478 550 33,000  Level Oakland Center
Tue 12:49:15 PM 36.8808 -119.5661 91° East 480 552 33,000  Level Oakland Center
Tue 12:50:16 PM 36.8772 -119.3983 91° East 484 557 33,000  Level Oakland Center
Tue 12:51:17 PM 36.8747 -119.2328 91° East 481 554 33,000  Level Oakland Center
Tue 12:52:19 PM 36.8700 -119.0661 92° East 481 554 33,000  Level Oakland Center
Tue 12:53:20 PM 36.8661 -118.8975 92° East 486 559 33,000  Level Oakland Center
Tue 12:54:21 PM 36.8636 -118.7311 91° East 482 555 33,000  Level Oakland Center
Tue 12:55:22 PM 36.8603 -118.5622 91° East 486 559 33,000  Level Oakland Center
Tue 12:56:24 PM 36.8544 -118.3717 92° East 492 566 33,000  Level Oakland Center
Tue 12:56:58 PM 36.8528 -118.2719 91° East 488 562 33,000  Level Los Angeles Center
Tue 12:58:00 PM 36.8481 -118.1031 92° East 489 563 33,000  Level Los Angeles Center
Tue 12:59:02 PM 36.8433 -117.9342 92° East 489 563 33,000 -387 Level Los Angeles Center
Tue 01:00:04 PM 36.8375 -117.7617 92° East 494 568 32,200 -871 Descending Los Angeles Center
Tue 01:01:06 PM 36.8325 -117.5897 92° East 497 572 31,200 -1,065 Descending Los Angeles Center
Tue 01:02:08 PM 36.8011 -117.3936 101° East 489 563 30,000 -1,016 Descending Los Angeles Center
Tue 01:03:10 PM 36.7525 -117.2700 116° Southeast 471 542 29,100 -480 Descending Los Angeles Center
Tue 01:04:13 PM 36.6819 -117.0906 116° Southeast 479 551 29,000 -48 Descending Los Angeles Center
Tue 01:05:15 PM 36.6228 -116.9394 116° Southeast 483 556 29,000 -484 Level Los Angeles Center
Tue 01:06:17 PM 36.5672 -116.8014 117° Southeast 479 551 28,000 -1,016 Descending Los Angeles Center
Tue 01:07:19 PM 36.5050 -116.6456 116° Southeast 476 548 26,900 -1,258 Descending Los Angeles Center
Tue 01:08:21 PM 36.4469 -116.5019 117° Southeast 469 540 25,400 -1,984 Descending Los Angeles Center
Tue 01:09:23 PM 36.3900 -116.3639 117° Southeast 456 525 22,800 -2,661 Descending Los Angeles Center
Tue 01:10:25 PM 36.3272 -116.2064 116° Southeast 433 498 19,900 -2,557 Descending Los Angeles Center
Tue 01:11:18 PM 36.2833 -116.1014 117° Southeast 411 473 17,900 -1,742 Descending Los Angeles Center
Tue 01:12:29 PM 36.2219 -115.9519 117° Southeast 384 442 16,300 -1,299 Descending Los Angeles Center
Tue 01:13:32 PM 36.1825 -115.8456 115° Southeast 345 397 15,000 -1,392 Descending Los Angeles Center
Tue 01:14:34 PM 36.1472 -115.7319 111° Southeast 332 382 13,400 -968 Descending Los Angeles Center
Tue 01:15:36 PM 36.1128 -115.6286 112° Southeast 326 375 13,000 -194 Descending Los Angeles Center
Tue 01:16:38 PM 36.0814 -115.5333 112° Southeast 322 371 13,000 -532 Level Los Angeles Center
Tue 01:17:40 PM 36.0425 -115.4111 111° Southeast 321 369 11,900 -1,322 Descending Los Angeles Center
Tue 01:18:36 PM 36.0275 -115.3225 102° East 319 367 10,400 -1,568 Descending Los Angeles Center
Tue 01:19:31 PM 36.0192 -115.2242 96° East 305 351 9,000 -1,082 Descending Los Angeles Center
Tue 01:20:38 PM 36.0131 -115.1172 94° East 277 319 8,200 -493 Descending Los Angeles Center
Tue 01:21:45 PM 36.0056 -115.0133 95° East 265 305 7,900 -541 Descending Los Angeles Center
Tue 01:22:40 PM 36.0036 -114.9447 92° East 218 251 7,100 -1,096 Descending Los Angeles Center
Tue 01:23:40 PM 36.0467 -114.9439 North 216 249 5,800 -1,240 Descending Los Angeles Center
Tue 01:24:41 PM 36.0747 -115.0036 300° West 208 239 4,600 -1,313 Descending Los Angeles Center
Tue 01:25:48 PM 36.0731 -115.0653 268° West 156 180 3,000 -1,043 Descending Los Angeles Center
Tue 01:26:59 PM 36.0747 -115.1153 272° West 156 180 2,200 -676 Descending Los Angeles Center
Tue 01:28:00 PM 36.0667 -115.1500 270° West  Level FlightAware Approximate
Tue 01:35:00 PM 36.0801 -115.1523 270° West  Level Estimated

Login

Don't have an account? Register now (free) for customized features, flight alerts, and more!